createdAt,value
2023-04-01T00:01:51.670Z,3.83
2023-04-01T00:04:19.263Z,5.35
2023-04-01T00:06:48.292Z,3.40
2023-04-01T00:09:15.916Z,2.22
2023-04-01T00:11:43.433Z,4.50
2023-04-01T00:14:11.471Z,2.83
2023-04-01T00:16:38.732Z,3.08
2023-04-01T00:19:06.222Z,4.15
2023-04-01T00:21:33.453Z,3.78
2023-04-01T00:24:01.299Z,4.43
2023-04-01T00:26:28.815Z,3.85
2023-04-01T00:28:56.216Z,4.60
2023-04-01T00:31:23.411Z,3.15
2023-04-01T00:33:52.685Z,3.25
2023-04-01T00:36:22.630Z,4.20
2023-04-01T00:38:51.406Z,4.07
2023-04-01T00:41:20.427Z,3.08
2023-04-01T00:43:49.595Z,4.20
2023-04-01T00:46:17.094Z,3.45
2023-04-01T00:48:49.911Z,8.15
2023-04-01T00:51:21.692Z,3.60
2023-04-01T00:53:51.407Z,4.53
2023-04-01T00:56:23.352Z,4.30
2023-04-01T00:58:53.360Z,2.97
2023-04-01T01:01:23.427Z,3.42
2023-04-01T01:03:51.158Z,3.47
2023-04-01T01:06:40.216Z,3.70
2023-04-01T01:09:18.056Z,4.37
2023-04-01T01:11:55.995Z,3.22
2023-04-01T01:14:37.330Z,4.03
2023-04-01T01:17:15.527Z,4.00
2023-04-01T01:19:50.991Z,4.32
2023-04-01T01:22:36.871Z,4.95
2023-04-01T01:25:35.134Z,4.72
2023-04-01T01:28:36.352Z,4.28
2023-04-01T01:31:34.318Z,3.62
2023-04-01T01:34:26.021Z,3.35
2023-04-01T01:37:00.596Z,3.87
2023-04-01T01:42:03.372Z,4.28
2023-04-01T01:44:31.662Z,5.57
2023-04-01T01:46:59.651Z,5.15
2023-04-01T01:49:31.118Z,6.53
2023-04-01T01:51:59.003Z,6.50
2023-04-01T01:54:26.212Z,7.82
2023-04-01T01:57:04.327Z,6.03
2023-04-01T01:59:34.443Z,3.67
2023-04-01T02:02:02.525Z,7.28
2023-04-01T02:04:30.330Z,6.05
2023-04-01T02:07:01.864Z,6.05
2023-04-01T02:09:30.467Z,8.65
2023-04-01T02:12:05.367Z,10.85
2023-04-01T02:15:20.591Z,4.75
2023-04-01T02:17:49.929Z,5.25
2023-04-01T02:20:19.967Z,4.45
2023-04-01T02:22:52.954Z,3.95
2023-04-01T02:25:24.886Z,4.07
2023-04-01T02:27:52.915Z,4.55
2023-04-01T02:30:20.404Z,4.87
2023-04-01T02:32:48.350Z,4.75
2023-04-01T02:35:17.159Z,4.25
2023-04-01T02:37:45.461Z,6.82
2023-04-01T02:40:14.198Z,4.03
2023-04-01T02:42:41.726Z,3.95
2023-04-01T02:45:09.469Z,5.35
2023-04-01T02:47:37.007Z,4.10
2023-04-01T02:50:04.769Z,4.10
2023-04-01T02:52:32.223Z,5.25
2023-04-01T02:55:00.119Z,3.67
2023-04-01T02:57:27.492Z,4.28
2023-04-01T02:59:54.778Z,3.85
2023-04-01T03:02:22.317Z,4.35
2023-04-01T03:04:49.615Z,5.05
2023-04-01T03:07:17.205Z,3.83
2023-04-01T03:09:44.683Z,3.33
2023-04-01T03:12:11.904Z,3.17
2023-04-01T03:14:40.795Z,3.17
2023-04-01T03:17:08.274Z,5.60
2023-04-01T03:19:35.592Z,6.05
2023-04-01T03:22:04.888Z,5.43
2023-04-01T03:24:32.341Z,3.97
2023-04-01T03:26:59.536Z,3.10
2023-04-01T03:29:26.819Z,4.87
2023-04-01T03:31:54.500Z,5.90
2023-04-01T03:34:21.697Z,2.80
2023-04-01T03:36:48.875Z,2.72
2023-04-01T03:39:19.650Z,4.30
2023-04-01T03:41:47.139Z,4.47
2023-04-01T03:44:14.469Z,4.85
2023-04-01T03:46:42.700Z,3.65
2023-04-01T03:49:12.591Z,3.28
2023-04-01T03:51:41.079Z,3.78
2023-04-01T03:54:09.846Z,5.03
2023-04-01T03:56:37.852Z,2.92
2023-04-01T03:59:07.953Z,3.15
2023-04-01T04:01:35.853Z,4.55
2023-04-01T04:04:03.871Z,2.90
2023-04-01T04:06:31.087Z,3.72
2023-04-01T04:08:58.396Z,3.37
2023-04-01T04:11:26.858Z,2.83
2023-04-01T04:13:55.546Z,3.72
2023-04-01T04:16:23.938Z,2.92
2023-04-01T04:18:52.473Z,2.53
2023-04-01T04:21:19.645Z,2.65
2023-04-01T04:23:47.147Z,3.92
2023-04-01T04:26:16.246Z,4.20
2023-04-01T04:28:45.090Z,4.65
2023-04-01T04:31:12.896Z,3.42
2023-04-01T04:33:41.796Z,4.55
2023-04-01T04:36:09.312Z,5.65
2023-04-01T04:38:36.733Z,8.88
2023-04-01T04:41:04.404Z,8.07
2023-04-01T04:43:31.730Z,10.30
2023-04-01T04:46:00.541Z,13.07
2023-04-01T04:48:28.060Z,11.77
2023-04-01T04:50:55.485Z,5.72
2023-04-01T04:53:23.379Z,9.40
2023-04-01T04:55:51.218Z,4.00
2023-04-01T04:58:19.314Z,4.30
2023-04-01T05:00:47.033Z,5.22
2023-04-01T05:03:17.429Z,4.15
2023-04-01T05:05:53.486Z,4.43
2023-04-01T05:08:21.096Z,4.75
2023-04-01T05:10:48.496Z,3.60
2023-04-01T05:13:15.844Z,7.47
2023-04-01T05:15:43.673Z,5.62
2023-04-01T05:18:11.112Z,4.35
2023-04-01T05:20:38.327Z,3.05
2023-04-01T05:23:05.714Z,4.15
2023-04-01T05:25:33.133Z,4.40
2023-04-01T05:28:00.464Z,4.55
2023-04-01T05:30:28.225Z,8.73
2023-04-01T05:32:55.959Z,3.17
2023-04-01T05:35:23.257Z,3.87
2023-04-01T05:37:50.831Z,4.70
2023-04-01T05:40:18.331Z,5.55
2023-04-01T05:42:45.579Z,3.22
2023-04-01T05:45:16.399Z,4.80
2023-04-01T05:47:45.073Z,3.75
2023-04-01T05:50:12.957Z,4.72
2023-04-01T05:52:40.305Z,5.60
2023-04-01T05:55:08.128Z,5.10
2023-04-01T05:57:35.929Z,8.32
2023-04-01T06:00:05.804Z,5.82
2023-04-01T06:02:40.221Z,6.55
2023-04-01T06:05:19.618Z,5.65
2023-04-01T06:07:47.269Z,4.28
2023-04-01T06:10:20.528Z,5.00
2023-04-01T06:13:30.098Z,4.35
2023-04-01T06:16:26.068Z,6.75
2023-04-01T06:19:33.900Z,3.33
2023-04-01T06:22:40.181Z,5.93
2023-04-01T06:25:22.631Z,4.35
2023-04-01T06:27:59.678Z,3.90
2023-04-01T06:30:36.093Z,4.45
2023-04-01T06:33:44.460Z,3.30
2023-04-01T06:36:33.506Z,3.53
2023-04-01T06:39:04.304Z,4.18
2023-04-01T06:42:01.137Z,4.90
2023-04-01T06:44:39.036Z,3.85
2023-04-01T06:47:24.000Z,4.97
2023-04-01T06:50:14.984Z,5.45
2023-04-01T06:53:12.224Z,3.85
2023-04-01T06:55:54.940Z,5.55
2023-04-01T06:58:26.488Z,5.72
2023-04-01T07:01:05.067Z,10.90
2023-04-01T07:03:45.507Z,3.60
2023-04-01T07:06:22.341Z,2.87
2023-04-01T07:08:51.083Z,4.57
2023-04-01T07:11:27.480Z,4.35
2023-04-01T07:14:03.930Z,4.00
2023-04-01T07:16:34.994Z,5.50
2023-04-01T07:19:13.753Z,5.95
2023-04-01T07:22:00.131Z,4.78
2023-04-01T07:24:37.867Z,5.07
2023-04-01T07:27:11.313Z,4.65
2023-04-01T07:29:38.831Z,3.28
2023-04-01T07:32:13.447Z,3.87
2023-04-01T07:35:02.166Z,4.10
2023-04-01T07:37:46.761Z,12.65
2023-04-01T07:40:23.100Z,5.53
2023-04-01T07:43:09.413Z,6.03
2023-04-01T07:45:39.186Z,4.80
2023-04-01T07:48:26.394Z,8.20
2023-04-01T07:51:11.171Z,4.28
2023-04-01T07:53:50.483Z,3.28
2023-04-01T07:56:56.947Z,4.22
2023-04-01T07:59:38.585Z,4.15
2023-04-01T08:02:29.407Z,3.33
2023-04-01T08:05:15.972Z,6.60
2023-04-01T08:07:46.379Z,3.97
2023-04-01T08:10:26.968Z,1.85
2023-04-01T08:13:22.281Z,5.60
2023-04-01T08:16:00.659Z,1.40
2023-04-01T08:18:59.038Z,2.58
2023-04-01T08:21:29.846Z,1.85
2023-04-01T08:23:59.187Z,4.68
2023-04-01T08:26:27.157Z,2.10
2023-04-01T08:29:10.422Z,3.33
2023-04-01T08:32:01.549Z,2.75
2023-04-01T08:34:34.956Z,2.47
2023-04-01T08:37:07.071Z,1.42
2023-04-01T08:40:17.155Z,3.05
2023-04-01T08:43:33.965Z,2.53
2023-04-01T08:46:24.817Z,5.10
2023-04-01T08:49:26.355Z,4.35
2023-04-01T08:51:53.532Z,2.55
2023-04-01T08:54:44.909Z,3.50
2023-04-01T08:57:14.433Z,2.12
2023-04-01T08:59:46.713Z,6.43
2023-04-01T09:02:46.616Z,7.15
2023-04-01T09:05:36.046Z,1.85
2023-04-01T09:08:34.294Z,3.30
2023-04-01T09:11:18.443Z,4.10
2023-04-01T09:14:02.638Z,3.75
2023-04-01T09:16:48.491Z,4.80
2023-04-01T09:19:47.574Z,3.92
2023-04-01T09:22:39.742Z,4.30
2023-04-01T09:25:24.008Z,2.22
2023-04-01T09:27:57.429Z,6.55
2023-04-01T09:30:58.455Z,3.10
2023-04-01T09:33:34.976Z,5.62
2023-04-01T09:36:06.165Z,2.25
2023-04-01T09:38:52.096Z,3.70
2023-04-01T09:41:32.567Z,2.45
2023-04-01T09:44:59.180Z,6.45
2023-04-01T09:50:18.122Z,2.15
2023-04-01T09:53:03.355Z,4.43
2023-04-01T09:56:18.057Z,3.35
2023-04-01T09:59:22.681Z,3.62
2023-04-01T10:02:15.043Z,3.12
2023-04-01T10:04:58.413Z,4.18
2023-04-01T10:07:44.106Z,4.90
2023-04-01T10:10:39.462Z,3.50
2023-04-01T10:16:34.816Z,2.37
2023-04-01T10:19:16.925Z,2.80
2023-04-01T10:22:06.358Z,1.65
2023-04-01T10:24:53.067Z,6.65
2023-04-01T10:27:38.943Z,2.55
2023-04-01T10:30:47.862Z,2.30
2023-04-01T10:33:41.688Z,9.05
2023-04-01T10:36:14.977Z,2.00
2023-04-01T10:39:08.907Z,3.67
2023-04-01T10:41:42.204Z,5.30
2023-04-01T10:44:30.476Z,2.47
2023-04-01T10:46:58.417Z,3.17
2023-04-01T10:49:48.945Z,2.62
2023-04-01T10:52:30.015Z,4.10
2023-04-01T10:55:25.872Z,3.67
2023-04-01T10:58:20.855Z,2.85
2023-04-01T11:01:04.172Z,4.75
2023-04-01T11:04:07.856Z,1.60
2023-04-01T11:07:03.381Z,1.80
2023-04-01T11:09:57.285Z,3.40
2023-04-01T11:12:30.863Z,5.62
2023-04-01T11:15:37.732Z,5.03
2023-04-01T11:18:26.313Z,5.05
2023-04-01T11:21:32.321Z,2.45
2023-04-01T11:24:18.523Z,2.28
2023-04-01T11:26:54.732Z,2.03
2023-04-01T11:30:05.348Z,7.78
2023-04-01T11:33:00.285Z,4.50
2023-04-01T11:35:44.129Z,2.62
2023-04-01T11:38:24.480Z,1.70
2023-04-01T11:40:58.148Z,1.77
2023-04-01T11:43:34.395Z,3.12
2023-04-01T11:46:13.175Z,3.45
2023-04-01T11:49:03.889Z,1.87
2023-04-01T11:51:44.454Z,4.53
2023-04-01T11:54:45.496Z,3.05
2023-04-01T11:57:37.114Z,4.05
2023-04-01T12:00:04.239Z,3.70
2023-04-01T12:03:35.067Z,2.53
2023-04-01T12:06:08.265Z,6.85
2023-04-01T12:08:41.005Z,3.35
2023-04-01T12:11:37.717Z,2.37
2023-04-01T12:14:31.643Z,2.78
2023-04-01T12:17:28.724Z,5.22
2023-04-01T12:20:17.161Z,1.95
2023-04-01T12:22:47.551Z,1.73
2023-04-01T12:25:48.742Z,5.15
2023-04-01T12:28:19.099Z,1.95
2023-04-01T12:31:18.888Z,1.90
2023-04-01T12:33:58.764Z,2.53
2023-04-01T12:36:44.184Z,1.85
2023-04-01T12:39:50.704Z,2.40
2023-04-01T12:42:20.914Z,1.85
2023-04-01T12:44:55.847Z,2.17
2023-04-01T12:47:29.148Z,2.78
2023-04-01T12:50:17.886Z,2.20
2023-04-01T12:53:06.948Z,5.12
2023-04-01T12:55:41.082Z,3.20
2023-04-01T12:58:26.882Z,2.90
2023-04-01T13:01:01.432Z,6.45
2023-04-01T13:06:01.862Z,5.45
2023-04-01T13:08:56.300Z,10.45
2023-04-01T13:11:38.062Z,5.07
2023-04-01T13:14:31.401Z,4.78
2023-04-01T13:17:21.879Z,2.45
2023-04-01T13:20:14.340Z,3.50
2023-04-01T13:23:00.096Z,3.28
2023-04-01T13:26:18.304Z,2.45
2023-04-01T13:28:58.229Z,3.30
2023-04-01T13:31:39.787Z,2.85
2023-04-01T13:34:19.167Z,4.95
2023-04-01T13:37:00.681Z,3.00
2023-04-01T13:39:55.064Z,3.87
2023-04-01T13:42:29.851Z,3.42
2023-04-01T13:45:12.265Z,2.15
2023-04-01T13:48:00.675Z,1.98
2023-04-01T13:50:34.563Z,2.60
2023-04-01T13:53:01.958Z,6.55
2023-04-01T13:55:32.780Z,4.72
2023-04-01T13:58:11.421Z,2.87
2023-04-01T14:01:08.693Z,2.42
2023-04-01T14:03:56.089Z,3.53
2023-04-01T14:06:34.908Z,4.32
2023-04-01T14:09:38.770Z,4.37
2023-04-01T14:12:14.152Z,2.37
2023-04-01T14:15:12.396Z,3.42
2023-04-01T14:17:59.204Z,4.90
2023-04-01T14:21:04.908Z,5.18
2023-04-01T14:23:46.848Z,4.15
2023-04-01T14:26:44.257Z,4.03
2023-04-01T14:29:36.540Z,4.97
2023-04-01T14:32:22.337Z,2.35
2023-04-01T14:35:11.666Z,6.95
2023-04-01T14:38:07.317Z,4.37
2023-04-01T14:40:55.342Z,2.47
2023-04-01T14:43:35.783Z,9.55
2023-04-01T14:46:18.704Z,13.00
2023-04-01T14:48:54.989Z,8.55
2023-04-01T14:51:35.989Z,7.53
2023-04-01T14:54:12.612Z,7.45
2023-04-01T14:56:51.715Z,6.28
2023-04-01T14:59:22.150Z,5.32
2023-04-01T15:01:52.041Z,3.65
2023-04-01T15:04:25.850Z,4.43
2023-04-01T15:07:01.698Z,10.65
2023-04-01T15:10:06.801Z,4.43
2023-04-01T15:12:58.334Z,3.78
2023-04-01T15:15:37.941Z,3.85
2023-04-01T15:18:11.375Z,2.50
2023-04-01T15:20:57.113Z,9.30
2023-04-01T15:23:33.222Z,4.85
2023-04-01T15:26:09.678Z,2.90
2023-04-01T15:28:42.576Z,3.50
2023-04-01T15:31:38.272Z,4.40
2023-04-01T15:34:27.000Z,3.42
2023-04-01T15:37:21.709Z,2.05
2023-04-01T15:39:57.780Z,4.22
2023-04-01T15:42:29.707Z,32.03
2023-04-01T15:45:02.678Z,3.33
2023-04-01T15:47:41.135Z,3.63
2023-04-01T15:50:11.608Z,3.05
2023-04-01T15:52:51.482Z,3.58
2023-04-01T15:55:40.671Z,3.28
2023-04-01T15:58:41.047Z,3.75
2023-04-01T16:01:32.866Z,3.95
2023-04-01T16:04:28.489Z,1.98
2023-04-01T16:07:29.461Z,2.12
2023-04-01T16:10:33.195Z,4.05
2023-04-01T16:13:19.837Z,4.93
2023-04-01T16:16:08.605Z,2.08
2023-04-01T16:18:35.777Z,3.62
2023-04-01T16:21:13.265Z,3.35
2023-04-01T16:23:53.999Z,4.72
2023-04-01T16:27:09.599Z,2.78
2023-04-01T16:29:43.207Z,7.90
2023-04-01T16:32:38.508Z,1.85
2023-04-01T16:35:33.363Z,2.47
2023-04-01T16:38:02.508Z,5.10
2023-04-01T16:40:46.298Z,2.45
2023-04-01T16:43:22.125Z,1.75
2023-04-01T16:46:07.526Z,4.03
2023-04-01T16:49:12.195Z,4.43
2023-04-01T16:51:39.229Z,2.92
2023-04-01T16:54:14.700Z,2.22
2023-04-01T16:57:09.880Z,4.15
2023-04-01T16:59:58.823Z,5.00
2023-04-01T17:02:39.588Z,11.32
2023-04-01T17:05:12.939Z,3.45
2023-04-01T17:07:50.371Z,6.37
2023-04-01T17:10:33.925Z,3.75
2023-04-01T17:13:07.246Z,9.00
2023-04-01T17:15:54.848Z,12.23
2023-04-01T17:18:59.878Z,6.37
2023-04-01T17:21:48.876Z,20.67
2023-04-01T17:24:49.618Z,26.42
2023-04-01T17:27:26.456Z,50.17
2023-04-01T17:30:02.740Z,14.02
2023-04-01T17:32:49.058Z,15.68
2023-04-01T17:35:41.433Z,23.80
2023-04-01T17:38:42.020Z,27.37
2023-04-01T17:41:33.925Z,44.22
2023-04-01T17:44:13.451Z,23.80
2023-04-01T17:46:46.596Z,17.50
2023-04-01T17:49:26.204Z,12.98
2023-04-01T17:51:59.256Z,13.45
2023-04-01T17:54:40.965Z,12.60
2023-04-01T17:57:52.943Z,13.75
2023-04-01T18:00:30.113Z,11.95
2023-04-01T18:03:24.627Z,21.00
2023-04-01T18:06:01.727Z,25.40
2023-04-01T18:08:57.024Z,15.90
2023-04-01T18:11:42.351Z,18.05
2023-04-01T18:14:19.084Z,13.98
2023-04-01T18:17:21.395Z,28.23
2023-04-01T18:20:01.202Z,29.17
2023-04-01T18:22:53.828Z,29.08
2023-04-01T18:25:45.212Z,25.55
2023-04-01T18:28:20.443Z,26.60
2023-04-01T18:31:21.764Z,37.95
2023-04-01T18:34:08.751Z,40.53
2023-04-01T18:36:46.084Z,24.98
2023-04-01T18:39:16.307Z,18.12
2023-04-01T18:42:11.585Z,26.23
2023-04-01T18:44:51.603Z,18.33
2023-04-01T18:47:21.828Z,18.92
2023-04-01T18:50:01.621Z,22.50
2023-04-01T18:52:41.326Z,18.40
2023-04-01T18:55:08.811Z,11.70
2023-04-01T18:58:07.698Z,24.10
2023-04-01T19:00:41.422Z,16.87
2023-04-01T19:03:16.923Z,28.20
2023-04-01T19:05:47.544Z,16.65
2023-04-01T19:08:29.423Z,30.45
2023-04-01T19:10:56.610Z,20.25
2023-04-01T19:13:32.535Z,14.48
2023-04-01T19:16:30.364Z,16.77
2023-04-01T19:19:42.899Z,17.98
2023-04-01T19:22:42.247Z,20.25
2023-04-01T19:25:18.578Z,16.70
2023-04-01T19:27:53.565Z,19.35
2023-04-01T19:30:37.602Z,17.50
2023-04-01T19:33:14.919Z,17.65
2023-04-01T19:35:43.243Z,19.25
2023-04-01T19:38:22.610Z,17.60
2023-04-01T19:41:01.958Z,15.15
2023-04-01T19:43:50.798Z,15.52
2023-04-01T19:46:27.267Z,21.37
2023-04-01T19:49:07.456Z,17.25
2023-04-01T19:51:56.473Z,19.83
2023-04-01T19:54:39.404Z,19.55
2023-04-01T19:57:28.883Z,23.15
2023-04-01T20:00:08.292Z,17.67
2023-04-01T20:02:45.175Z,18.15
2023-04-01T20:05:27.865Z,22.52
2023-04-01T20:08:09.428Z,15.48
2023-04-01T20:10:43.803Z,18.08
2023-04-01T20:15:47.087Z,32.08
2023-04-01T20:18:18.297Z,45.40
2023-04-01T20:21:01.818Z,37.35
2023-04-01T20:23:46.111Z,26.20
2023-04-01T20:26:14.256Z,18.42
2023-04-01T20:29:18.927Z,33.05
2023-04-01T20:32:05.604Z,28.27
2023-04-01T20:34:33.210Z,22.98
2023-04-01T20:37:20.793Z,14.40
2023-04-01T20:39:56.524Z,27.20
2023-04-01T20:42:23.543Z,25.62
2023-04-01T20:45:17.228Z,16.65
2023-04-01T20:47:47.536Z,13.23
2023-04-01T20:50:36.273Z,13.23
2023-04-01T20:53:10.379Z,14.23
2023-04-01T20:58:30.618Z,13.70
2023-04-01T21:01:20.582Z,13.93
2023-04-01T21:03:58.028Z,14.25
2023-04-01T21:07:06.608Z,11.65
2023-04-01T21:09:46.409Z,12.23
2023-04-01T21:12:32.075Z,9.00
2023-04-01T21:15:17.438Z,10.32
2023-04-01T21:18:10.055Z,8.50
2023-04-01T21:20:50.034Z,8.85
2023-04-01T21:23:39.394Z,5.60
2023-04-01T21:26:31.181Z,8.45
2023-04-01T21:29:31.587Z,18.87
2023-04-01T21:32:07.702Z,25.02
2023-04-01T21:34:52.800Z,19.55
2023-04-01T21:37:28.252Z,31.42
2023-04-01T21:40:05.080Z,23.85
2023-04-01T21:42:50.573Z,21.15
2023-04-01T21:45:50.017Z,23.12
2023-04-01T21:48:35.797Z,13.93
2023-04-01T21:51:35.715Z,13.25
2023-04-01T21:54:18.922Z,8.55
2023-04-01T21:57:01.408Z,7.85
2023-04-01T21:59:43.570Z,6.22
2023-04-01T22:02:11.599Z,5.43
2023-04-01T22:04:44.309Z,5.47
2023-04-01T22:07:22.533Z,3.75
2023-04-01T22:10:11.731Z,6.03
2023-04-01T22:12:48.126Z,6.20
2023-04-01T22:15:59.208Z,4.93
2023-04-01T22:18:30.796Z,4.80
2023-04-01T22:21:06.320Z,6.22
2023-04-01T22:23:51.649Z,6.40
2023-04-01T22:26:34.069Z,6.32
2023-04-01T22:29:37.018Z,8.63
2023-04-01T22:32:39.740Z,6.75
2023-04-01T22:35:10.661Z,5.37
2023-04-01T22:37:41.160Z,4.35
2023-04-01T22:40:27.298Z,5.97
2023-04-01T22:43:02.464Z,5.40
2023-04-01T22:45:53.803Z,5.22
2023-04-01T22:48:40.523Z,3.62
2023-04-01T22:51:56.542Z,3.53
2023-04-01T22:54:35.029Z,3.92
2023-04-01T22:57:10.083Z,4.97
2023-04-01T22:59:40.701Z,5.75
2023-04-01T23:02:15.845Z,5.30
2023-04-01T23:04:44.840Z,3.80
2023-04-01T23:07:54.077Z,5.75
2023-04-01T23:10:31.274Z,4.93
2023-04-01T23:13:01.419Z,5.07
2023-04-01T23:15:29.784Z,4.97
2023-04-01T23:18:13.773Z,4.68
2023-04-01T23:20:51.316Z,5.65
2023-04-01T23:23:40.965Z,3.45
2023-04-01T23:26:33.561Z,2.70
2023-04-01T23:29:00.977Z,4.53
2023-04-01T23:31:34.458Z,4.10
2023-04-01T23:34:19.380Z,4.37
2023-04-01T23:36:56.537Z,3.45
2023-04-01T23:39:29.741Z,3.65
2023-04-01T23:42:00.984Z,5.43
2023-04-01T23:44:29.611Z,3.55
2023-04-01T23:46:58.269Z,6.15
2023-04-01T23:49:36.888Z,6.00
2023-04-01T23:52:10.600Z,4.70
2023-04-01T23:55:14.607Z,2.07
2023-04-01T23:57:42.162Z,3.53
